sensor_id;sensor_type;location;lat;lon;timestamp;P1;durP1;ratioP1;P2;durP2;ratioP2
16770;SDS011;8503;52.472;13.344;2022-10-17T00:01:08;9.18;;;4.65;;
16770;SDS011;8503;52.472;13.344;2022-10-17T00:02:33;5.60;;;4.20;;
16770;SDS011;8503;52.472;13.344;2022-10-17T00:03:55;7.50;;;4.40;;
16770;SDS011;8503;52.472;13.344;2022-10-17T00:05:18;6.82;;;4.50;;
16770;SDS011;8503;52.472;13.344;2022-10-17T00:06:41;9.57;;;4.68;;
16770;SDS011;8503;52.472;13.344;2022-10-17T00:08:04;10.60;;;5.43;;
16770;SDS011;8503;52.472;13.344;2022-10-17T00:09:28;7.38;;;4.80;;
16770;SDS011;8503;52.472;13.344;2022-10-17T00:10:54;7.72;;;4.72;;
16770;SDS011;8503;52.472;13.344;2022-10-17T00:12:17;8.43;;;4.68;;
16770;SDS011;8503;52.472;13.344;2022-10-17T00:13:41;6.63;;;4.82;;
16770;SDS011;8503;52.472;13.344;2022-10-17T00:15:05;6.82;;;4.53;;
16770;SDS011;8503;52.472;13.344;2022-10-17T00:16:30;6.50;;;4.35;;
16770;SDS011;8503;52.472;13.344;2022-10-17T00:17:57;7.57;;;4.55;;
16770;SDS011;8503;52.472;13.344;2022-10-17T00:19:19;7.10;;;4.88;;
16770;SDS011;8503;52.472;13.344;2022-10-17T00:20:42;15.50;;;5.93;;
16770;SDS011;8503;52.472;13.344;2022-10-17T00:22:06;9.85;;;5.35;;
16770;SDS011;8503;52.472;13.344;2022-10-17T00:23:29;9.63;;;5.07;;
16770;SDS011;8503;52.472;13.344;2022-10-17T00:24:52;14.82;;;5.95;;
16770;SDS011;8503;52.472;13.344;2022-10-17T00:26:15;9.27;;;5.22;;
16770;SDS011;8503;52.472;13.344;2022-10-17T00:27:39;8.98;;;4.95;;
16770;SDS011;8503;52.472;13.344;2022-10-17T00:29:03;9.10;;;5.40;;
16770;SDS011;8503;52.472;13.344;2022-10-17T00:30:25;8.57;;;4.93;;
16770;SDS011;8503;52.472;13.344;2022-10-17T00:31:50;6.47;;;4.47;;
16770;SDS011;8503;52.472;13.344;2022-10-17T00:33:15;10.65;;;5.30;;
16770;SDS011;8503;52.472;13.344;2022-10-17T00:34:38;6.95;;;4.80;;
16770;SDS011;8503;52.472;13.344;2022-10-17T00:36:01;6.55;;;4.93;;
16770;SDS011;8503;52.472;13.344;2022-10-17T00:37:25;7.97;;;5.30;;
16770;SDS011;8503;52.472;13.344;2022-10-17T00:38:49;8.18;;;5.30;;
16770;SDS011;8503;52.472;13.344;2022-10-17T00:40:14;8.50;;;5.15;;
16770;SDS011;8503;52.472;13.344;2022-10-17T00:41:36;9.60;;;5.35;;
16770;SDS011;8503;52.472;13.344;2022-10-17T00:42:59;7.95;;;5.10;;
16770;SDS011;8503;52.472;13.344;2022-10-17T00:46:22;9.02;;;5.13;;
16770;SDS011;8503;52.472;13.344;2022-10-17T00:47:49;9.23;;;5.55;;
16770;SDS011;8503;52.472;13.344;2022-10-17T00:49:15;11.43;;;5.55;;
16770;SDS011;8503;52.472;13.344;2022-10-17T00:50:37;8.93;;;5.57;;
16770;SDS011;8503;52.472;13.344;2022-10-17T00:52:03;9.75;;;5.28;;
16770;SDS011;8503;52.472;13.344;2022-10-17T00:53:28;7.80;;;5.35;;
16770;SDS011;8503;52.472;13.344;2022-10-17T00:54:53;8.23;;;5.70;;
16770;SDS011;8503;52.472;13.344;2022-10-17T00:56:18;11.70;;;6.20;;
16770;SDS011;8503;52.472;13.344;2022-10-17T00:57:42;8.23;;;5.63;;
16770;SDS011;8503;52.472;13.344;2022-10-17T00:59:06;10.05;;;5.80;;
16770;SDS011;8503;52.472;13.344;2022-10-17T01:00:31;10.00;;;5.97;;
16770;SDS011;8503;52.472;13.344;2022-10-17T01:01:55;10.35;;;6.38;;
16770;SDS011;8503;52.472;13.344;2022-10-17T01:03:24;11.05;;;5.20;;
16770;SDS011;8503;52.472;13.344;2022-10-17T01:04:49;10.45;;;5.30;;
16770;SDS011;8503;52.472;13.344;2022-10-17T01:06:12;10.77;;;5.88;;
16770;SDS011;8503;52.472;13.344;2022-10-17T01:07:35;11.85;;;5.97;;
16770;SDS011;8503;52.472;13.344;2022-10-17T01:08:59;14.57;;;6.15;;
16770;SDS011;8503;52.472;13.344;2022-10-17T01:10:23;8.63;;;5.38;;
16770;SDS011;8503;52.472;13.344;2022-10-17T01:11:51;14.18;;;5.90;;
16770;SDS011;8503;52.472;13.344;2022-10-17T01:13:18;9.60;;;5.53;;
16770;SDS011;8503;52.472;13.344;2022-10-17T01:14:45;14.57;;;5.82;;
16770;SDS011;8503;52.472;13.344;2022-10-17T01:16:14;7.80;;;5.70;;
16770;SDS011;8503;52.472;13.344;2022-10-17T01:17:42;11.15;;;5.68;;
16770;SDS011;8503;52.472;13.344;2022-10-17T01:19:22;6.60;;;5.05;;
16770;SDS011;8503;52.472;13.344;2022-10-17T01:21:00;12.32;;;5.50;;
16770;SDS011;8503;52.472;13.344;2022-10-17T01:22:36;10.18;;;4.97;;
16770;SDS011;8503;52.472;13.344;2022-10-17T01:24:15;9.68;;;4.85;;
16770;SDS011;8503;52.472;13.344;2022-10-17T01:25:55;6.38;;;4.30;;
16770;SDS011;8503;52.472;13.344;2022-10-17T01:27:33;6.03;;;4.57;;
16770;SDS011;8503;52.472;13.344;2022-10-17T01:29:14;11.95;;;5.47;;
16770;SDS011;8503;52.472;13.344;2022-10-17T01:30:51;11.80;;;5.35;;
16770;SDS011;8503;52.472;13.344;2022-10-17T01:32:21;6.43;;;4.80;;
16770;SDS011;8503;52.472;13.344;2022-10-17T01:33:51;7.38;;;4.97;;
16770;SDS011;8503;52.472;13.344;2022-10-17T01:35:19;5.97;;;4.68;;
16770;SDS011;8503;52.472;13.344;2022-10-17T01:36:46;9.13;;;4.90;;
16770;SDS011;8503;52.472;13.344;2022-10-17T01:38:13;7.20;;;4.15;;
16770;SDS011;8503;52.472;13.344;2022-10-17T01:39:41;7.88;;;4.82;;
16770;SDS011;8503;52.472;13.344;2022-10-17T01:41:10;6.30;;;4.30;;
16770;SDS011;8503;52.472;13.344;2022-10-17T01:42:40;8.80;;;4.65;;
16770;SDS011;8503;52.472;13.344;2022-10-17T01:44:07;6.38;;;4.43;;
16770;SDS011;8503;52.472;13.344;2022-10-17T01:45:33;11.88;;;3.95;;
16770;SDS011;8503;52.472;13.344;2022-10-17T01:47:02;7.05;;;4.22;;
16770;SDS011;8503;52.472;13.344;2022-10-17T01:48:26;7.70;;;4.00;;
16770;SDS011;8503;52.472;13.344;2022-10-17T01:49:56;5.80;;;4.45;;
16770;SDS011;8503;52.472;13.344;2022-10-17T01:51:24;7.78;;;4.70;;
16770;SDS011;8503;52.472;13.344;2022-10-17T01:52:50;8.52;;;4.70;;
16770;SDS011;8503;52.472;13.344;2022-10-17T01:54:16;7.57;;;4.30;;
16770;SDS011;8503;52.472;13.344;2022-10-17T01:55:42;5.70;;;4.38;;
16770;SDS011;8503;52.472;13.344;2022-10-17T01:57:09;8.80;;;4.97;;
16770;SDS011;8503;52.472;13.344;2022-10-17T01:58:37;8.50;;;4.85;;
16770;SDS011;8503;52.472;13.344;2022-10-17T02:00:02;7.18;;;4.85;;
16770;SDS011;8503;52.472;13.344;2022-10-17T02:01:28;9.57;;;4.18;;
16770;SDS011;8503;52.472;13.344;2022-10-17T02:02:55;11.38;;;5.00;;
16770;SDS011;8503;52.472;13.344;2022-10-17T02:04:18;7.13;;;4.47;;
16770;SDS011;8503;52.472;13.344;2022-10-17T02:05:42;9.20;;;4.95;;
16770;SDS011;8503;52.472;13.344;2022-10-17T02:07:06;5.15;;;4.13;;
16770;SDS011;8503;52.472;13.344;2022-10-17T02:08:38;6.82;;;4.75;;
16770;SDS011;8503;52.472;13.344;2022-10-17T02:10:03;10.60;;;4.63;;
16770;SDS011;8503;52.472;13.344;2022-10-17T02:11:31;5.88;;;4.40;;
16770;SDS011;8503;52.472;13.344;2022-10-17T02:12:54;7.13;;;4.82;;
16770;SDS011;8503;52.472;13.344;2022-10-17T02:14:24;8.35;;;4.30;;
16770;SDS011;8503;52.472;13.344;2022-10-17T02:16:06;9.05;;;4.22;;
16770;SDS011;8503;52.472;13.344;2022-10-17T02:17:38;6.20;;;4.47;;
16770;SDS011;8503;52.472;13.344;2022-10-17T02:19:16;7.25;;;4.47;;
16770;SDS011;8503;52.472;13.344;2022-10-17T02:20:48;9.52;;;4.28;;
16770;SDS011;8503;52.472;13.344;2022-10-17T02:22:15;9.13;;;4.90;;
16770;SDS011;8503;52.472;13.344;2022-10-17T02:23:44;7.75;;;4.32;;
16770;SDS011;8503;52.472;13.344;2022-10-17T02:25:12;7.03;;;4.32;;
16770;SDS011;8503;52.472;13.344;2022-10-17T02:26:40;8.13;;;4.28;;
16770;SDS011;8503;52.472;13.344;2022-10-17T02:28:08;5.90;;;4.53;;
16770;SDS011;8503;52.472;13.344;2022-10-17T02:29:45;7.40;;;3.72;;
16770;SDS011;8503;52.472;13.344;2022-10-17T02:31:12;5.85;;;3.90;;
16770;SDS011;8503;52.472;13.344;2022-10-17T02:32:39;9.77;;;4.60;;
16770;SDS011;8503;52.472;13.344;2022-10-17T02:34:11;5.47;;;4.63;;
16770;SDS011;8503;52.472;13.344;2022-10-17T02:35:39;6.10;;;4.07;;
16770;SDS011;8503;52.472;13.344;2022-10-17T02:37:04;8.30;;;4.78;;
16770;SDS011;8503;52.472;13.344;2022-10-17T02:38:29;7.88;;;4.05;;
16770;SDS011;8503;52.472;13.344;2022-10-17T02:39:52;9.88;;;4.60;;
16770;SDS011;8503;52.472;13.344;2022-10-17T02:41:17;5.93;;;4.45;;
16770;SDS011;8503;52.472;13.344;2022-10-17T02:42:41;9.68;;;4.13;;
16770;SDS011;8503;52.472;13.344;2022-10-17T02:44:06;6.97;;;4.35;;
16770;SDS011;8503;52.472;13.344;2022-10-17T02:45:29;5.68;;;4.35;;
16770;SDS011;8503;52.472;13.344;2022-10-17T02:46:58;6.43;;;4.10;;
16770;SDS011;8503;52.472;13.344;2022-10-17T02:48:33;5.47;;;4.45;;
16770;SDS011;8503;52.472;13.344;2022-10-17T02:50:01;5.82;;;3.83;;
16770;SDS011;8503;52.472;13.344;2022-10-17T02:51:27;7.03;;;4.32;;
16770;SDS011;8503;52.472;13.344;2022-10-17T02:52:54;6.05;;;4.28;;
16770;SDS011;8503;52.472;13.344;2022-10-17T02:54:20;5.40;;;4.10;;
16770;SDS011;8503;52.472;13.344;2022-10-17T02:55:47;5.82;;;3.85;;
16770;SDS011;8503;52.472;13.344;2022-10-17T02:57:13;9.00;;;4.15;;
16770;SDS011;8503;52.472;13.344;2022-10-17T02:58:39;7.78;;;4.13;;
16770;SDS011;8503;52.472;13.344;2022-10-17T03:00:05;9.50;;;3.58;;
16770;SDS011;8503;52.472;13.344;2022-10-17T03:01:31;9.35;;;4.20;;
16770;SDS011;8503;52.472;13.344;2022-10-17T03:02:53;7.90;;;4.13;;
16770;SDS011;8503;52.472;13.344;2022-10-17T03:04:18;8.27;;;4.72;;
16770;SDS011;8503;52.472;13.344;2022-10-17T03:05:42;5.13;;;3.83;;
16770;SDS011;8503;52.472;13.344;2022-10-17T03:07:05;5.28;;;4.05;;
16770;SDS011;8503;52.472;13.344;2022-10-17T03:08:28;8.30;;;4.18;;
16770;SDS011;8503;52.472;13.344;2022-10-17T03:09:52;6.22;;;4.20;;
16770;SDS011;8503;52.472;13.344;2022-10-17T03:11:14;6.10;;;4.28;;
16770;SDS011;8503;52.472;13.344;2022-10-17T03:12:38;5.47;;;4.05;;
16770;SDS011;8503;52.472;13.344;2022-10-17T03:14:01;5.72;;;4.07;;
16770;SDS011;8503;52.472;13.344;2022-10-17T03:15:23;6.57;;;4.32;;
16770;SDS011;8503;52.472;13.344;2022-10-17T03:16:47;5.70;;;4.28;;
16770;SDS011;8503;52.472;13.344;2022-10-17T03:18:09;4.03;;;3.47;;
16770;SDS011;8503;52.472;13.344;2022-10-17T03:19:33;5.68;;;3.97;;
16770;SDS011;8503;52.472;13.344;2022-10-17T03:20:56;5.13;;;3.95;;
16770;SDS011;8503;52.472;13.344;2022-10-17T03:22:20;5.65;;;4.10;;
16770;SDS011;8503;52.472;13.344;2022-10-17T03:23:46;4.03;;;3.63;;
16770;SDS011;8503;52.472;13.344;2022-10-17T03:25:09;4.90;;;3.90;;
16770;SDS011;8503;52.472;13.344;2022-10-17T03:26:31;5.05;;;4.25;;
16770;SDS011;8503;52.472;13.344;2022-10-17T03:27:56;9.73;;;4.18;;
16770;SDS011;8503;52.472;13.344;2022-10-17T03:29:19;10.98;;;3.95;;
16770;SDS011;8503;52.472;13.344;2022-10-17T03:30:43;7.63;;;4.05;;
16770;SDS011;8503;52.472;13.344;2022-10-17T03:32:05;5.80;;;3.95;;
16770;SDS011;8503;52.472;13.344;2022-10-17T03:33:29;5.72;;;3.05;;
16770;SDS011;8503;52.472;13.344;2022-10-17T03:34:51;5.07;;;3.97;;
16770;SDS011;8503;52.472;13.344;2022-10-17T03:36:19;7.35;;;4.10;;
16770;SDS011;8503;52.472;13.344;2022-10-17T03:37:42;3.97;;;3.40;;
16770;SDS011;8503;52.472;13.344;2022-10-17T03:39:05;5.93;;;3.85;;
16770;SDS011;8503;52.472;13.344;2022-10-17T03:40:28;5.00;;;3.92;;
16770;SDS011;8503;52.472;13.344;2022-10-17T03:41:52;4.90;;;4.10;;
16770;SDS011;8503;52.472;13.344;2022-10-17T03:43:14;5.65;;;3.53;;
16770;SDS011;8503;52.472;13.344;2022-10-17T03:44:38;4.15;;;3.50;;
16770;SDS011;8503;52.472;13.344;2022-10-17T03:46:01;5.40;;;3.40;;
16770;SDS011;8503;52.472;13.344;2022-10-17T03:47:24;5.25;;;3.95;;
16770;SDS011;8503;52.472;13.344;2022-10-17T03:48:48;6.00;;;3.25;;
16770;SDS011;8503;52.472;13.344;2022-10-17T03:50:11;4.57;;;3.75;;
16770;SDS011;8503;52.472;13.344;2022-10-17T03:51:37;5.03;;;3.97;;
16770;SDS011;8503;52.472;13.344;2022-10-17T03:53:00;4.75;;;3.38;;
16770;SDS011;8503;52.472;13.344;2022-10-17T03:54:22;6.00;;;3.60;;
16770;SDS011;8503;52.472;13.344;2022-10-17T03:55:46;5.03;;;3.85;;
16770;SDS011;8503;52.472;13.344;2022-10-17T03:57:09;5.32;;;4.03;;
16770;SDS011;8503;52.472;13.344;2022-10-17T03:58:33;7.70;;;3.60;;
16770;SDS011;8503;52.472;13.344;2022-10-17T03:59:55;4.95;;;3.80;;
16770;SDS011;8503;52.472;13.344;2022-10-17T04:01:19;9.85;;;4.00;;
16770;SDS011;8503;52.472;13.344;2022-10-17T04:02:42;4.10;;;3.58;;
16770;SDS011;8503;52.472;13.344;2022-10-17T04:04:05;5.15;;;4.13;;
16770;SDS011;8503;52.472;13.344;2022-10-17T04:05:28;6.22;;;3.83;;
16770;SDS011;8503;52.472;13.344;2022-10-17T04:06:53;5.63;;;4.00;;
16770;SDS011;8503;52.472;13.344;2022-10-17T04:08:16;6.10;;;4.35;;
16770;SDS011;8503;52.472;13.344;2022-10-17T04:09:39;4.10;;;3.67;;
16770;SDS011;8503;52.472;13.344;2022-10-17T04:11:03;5.43;;;3.90;;
16770;SDS011;8503;52.472;13.344;2022-10-17T04:12:27;9.32;;;3.95;;
16770;SDS011;8503;52.472;13.344;2022-10-17T04:13:51;6.38;;;4.03;;
16770;SDS011;8503;52.472;13.344;2022-10-17T04:15:15;5.40;;;3.95;;
16770;SDS011;8503;52.472;13.344;2022-10-17T04:16:38;9.20;;;4.10;;
16770;SDS011;8503;52.472;13.344;2022-10-17T04:18:01;4.15;;;3.67;;
16770;SDS011;8503;52.472;13.344;2022-10-17T04:19:30;7.25;;;3.97;;
16770;SDS011;8503;52.472;13.344;2022-10-17T04:20:52;4.53;;;3.75;;
16770;SDS011;8503;52.472;13.344;2022-10-17T04:22:17;6.25;;;3.90;;
16770;SDS011;8503;52.472;13.344;2022-10-17T04:23:41;6.45;;;3.83;;
16770;SDS011;8503;52.472;13.344;2022-10-17T04:25:04;3.97;;;3.38;;
16770;SDS011;8503;52.472;13.344;2022-10-17T04:26:27;6.10;;;3.55;;
16770;SDS011;8503;52.472;13.344;2022-10-17T04:27:50;4.47;;;3.60;;
16770;SDS011;8503;52.472;13.344;2022-10-17T04:29:14;7.57;;;3.67;;
16770;SDS011;8503;52.472;13.344;2022-10-17T04:30:37;4.85;;;3.92;;
16770;SDS011;8503;52.472;13.344;2022-10-17T04:32:05;6.38;;;4.20;;
16770;SDS011;8503;52.472;13.344;2022-10-17T04:33:28;8.52;;;4.50;;
16770;SDS011;8503;52.472;13.344;2022-10-17T04:34:51;6.97;;;4.15;;
16770;SDS011;8503;52.472;13.344;2022-10-17T04:36:15;4.93;;;3.97;;
16770;SDS011;8503;52.472;13.344;2022-10-17T04:37:41;7.38;;;3.63;;
16770;SDS011;8503;52.472;13.344;2022-10-17T04:39:04;7.38;;;3.92;;
16770;SDS011;8503;52.472;13.344;2022-10-17T04:40:28;5.57;;;3.55;;
16770;SDS011;8503;52.472;13.344;2022-10-17T04:41:51;6.57;;;4.20;;
16770;SDS011;8503;52.472;13.344;2022-10-17T04:43:16;6.60;;;3.53;;
16770;SDS011;8503;52.472;13.344;2022-10-17T04:44:39;5.93;;;3.85;;
16770;SDS011;8503;52.472;13.344;2022-10-17T04:46:03;5.72;;;4.40;;
16770;SDS011;8503;52.472;13.344;2022-10-17T04:47:28;4.53;;;3.83;;
16770;SDS011;8503;52.472;13.344;2022-10-17T04:48:52;4.78;;;3.90;;
16770;SDS011;8503;52.472;13.344;2022-10-17T04:50:16;6.60;;;3.78;;
16770;SDS011;8503;52.472;13.344;2022-10-17T04:51:40;6.65;;;4.45;;
16770;SDS011;8503;52.472;13.344;2022-10-17T04:53:05;6.07;;;3.47;;
16770;SDS011;8503;52.472;13.344;2022-10-17T04:54:27;4.55;;;3.63;;
16770;SDS011;8503;52.472;13.344;2022-10-17T04:55:51;5.10;;;3.63;;
16770;SDS011;8503;52.472;13.344;2022-10-17T04:57:13;7.28;;;4.45;;
16770;SDS011;8503;52.472;13.344;2022-10-17T04:58:37;13.57;;;4.10;;
16770;SDS011;8503;52.472;13.344;2022-10-17T05:00:01;9.82;;;4.10;;
16770;SDS011;8503;52.472;13.344;2022-10-17T05:01:25;5.00;;;3.70;;
16770;SDS011;8503;52.472;13.344;2022-10-17T05:02:49;6.93;;;4.15;;
16770;SDS011;8503;52.472;13.344;2022-10-17T05:04:12;5.53;;;3.78;;
16770;SDS011;8503;52.472;13.344;2022-10-17T05:05:36;6.47;;;3.95;;
16770;SDS011;8503;52.472;13.344;2022-10-17T05:06:58;4.05;;;3.65;;
16770;SDS011;8503;52.472;13.344;2022-10-17T05:08:23;5.68;;;3.63;;
16770;SDS011;8503;52.472;13.344;2022-10-17T05:09:46;7.68;;;4.25;;
16770;SDS011;8503;52.472;13.344;2022-10-17T05:11:14;4.70;;;3.90;;
16770;SDS011;8503;52.472;13.344;2022-10-17T05:12:39;4.47;;;3.42;;
16770;SDS011;8503;52.472;13.344;2022-10-17T05:14:02;8.18;;;3.78;;
16770;SDS011;8503;52.472;13.344;2022-10-17T05:15:27;10.48;;;4.03;;
16770;SDS011;8503;52.472;13.344;2022-10-17T05:16:50;4.75;;;3.83;;
16770;SDS011;8503;52.472;13.344;2022-10-17T05:18:14;6.18;;;3.88;;
16770;SDS011;8503;52.472;13.344;2022-10-17T05:19:37;4.13;;;3.72;;
16770;SDS011;8503;52.472;13.344;2022-10-17T05:21:01;5.70;;;3.95;;
16770;SDS011;8503;52.472;13.344;2022-10-17T05:22:25;7.90;;;4.35;;
16770;SDS011;8503;52.472;13.344;2022-10-17T05:23:51;5.57;;;4.43;;
16770;SDS011;8503;52.472;13.344;2022-10-17T05:25:14;7.22;;;4.35;;
16770;SDS011;8503;52.472;13.344;2022-10-17T05:26:38;5.63;;;4.18;;
16770;SDS011;8503;52.472;13.344;2022-10-17T05:28:01;4.55;;;4.13;;
16770;SDS011;8503;52.472;13.344;2022-10-17T05:29:25;5.45;;;4.30;;
16770;SDS011;8503;52.472;13.344;2022-10-17T05:30:48;5.82;;;4.25;;
16770;SDS011;8503;52.472;13.344;2022-10-17T05:32:12;3.80;;;3.40;;
16770;SDS011;8503;52.472;13.344;2022-10-17T05:33:36;6.00;;;4.15;;
16770;SDS011;8503;52.472;13.344;2022-10-17T05:35:00;5.15;;;4.38;;
16770;SDS011;8503;52.472;13.344;2022-10-17T05:36:24;6.32;;;4.38;;
16770;SDS011;8503;52.472;13.344;2022-10-17T05:37:49;7.07;;;4.22;;
16770;SDS011;8503;52.472;13.344;2022-10-17T05:39:13;5.30;;;4.57;;
16770;SDS011;8503;52.472;13.344;2022-10-17T05:40:39;6.30;;;4.20;;
16770;SDS011;8503;52.472;13.344;2022-10-17T05:42:03;6.85;;;4.32;;
16770;SDS011;8503;52.472;13.344;2022-10-17T05:43:25;4.90;;;3.92;;
16770;SDS011;8503;52.472;13.344;2022-10-17T05:44:49;12.90;;;4.82;;
16770;SDS011;8503;52.472;13.344;2022-10-17T05:46:13;5.68;;;4.57;;
16770;SDS011;8503;52.472;13.344;2022-10-17T05:47:35;9.27;;;3.85;;
16770;SDS011;8503;52.472;13.344;2022-10-17T05:48:58;7.80;;;4.40;;
16770;SDS011;8503;52.472;13.344;2022-10-17T05:50:27;7.32;;;4.57;;
16770;SDS011;8503;52.472;13.344;2022-10-17T05:51:51;7.72;;;4.15;;
16770;SDS011;8503;52.472;13.344;2022-10-17T05:53:14;4.72;;;4.07;;
16770;SDS011;8503;52.472;13.344;2022-10-17T05:54:39;11.30;;;4.70;;
16770;SDS011;8503;52.472;13.344;2022-10-17T05:56:03;8.43;;;4.53;;
16770;SDS011;8503;52.472;13.344;2022-10-17T05:57:29;7.93;;;4.78;;
16770;SDS011;8503;52.472;13.344;2022-10-17T05:58:52;6.55;;;4.35;;
16770;SDS011;8503;52.472;13.344;2022-10-17T06:00:21;7.18;;;4.18;;
16770;SDS011;8503;52.472;13.344;2022-10-17T06:01:44;6.85;;;3.67;;
16770;SDS011;8503;52.472;13.344;2022-10-17T06:03:08;7.82;;;4.55;;
16770;SDS011;8503;52.472;13.344;2022-10-17T06:04:33;4.82;;;3.97;;
16770;SDS011;8503;52.472;13.344;2022-10-17T06:06:01;5.93;;;3.80;;
16770;SDS011;8503;52.472;13.344;2022-10-17T06:07:25;7.65;;;4.10;;
16770;SDS011;8503;52.472;13.344;2022-10-17T06:08:48;9.10;;;4.70;;
16770;SDS011;8503;52.472;13.344;2022-10-17T06:10:12;7.30;;;3.83;;
16770;SDS011;8503;52.472;13.344;2022-10-17T06:11:37;5.28;;;4.50;;
16770;SDS011;8503;52.472;13.344;2022-10-17T06:13:01;5.38;;;4.15;;
16770;SDS011;8503;52.472;13.344;2022-10-17T06:14:24;6.22;;;3.70;;
16770;SDS011;8503;52.472;13.344;2022-10-17T06:15:48;7.60;;;4.13;;
16770;SDS011;8503;52.472;13.344;2022-10-17T06:17:11;4.68;;;3.60;;
16770;SDS011;8503;52.472;13.344;2022-10-17T06:18:36;7.40;;;4.13;;
16770;SDS011;8503;52.472;13.344;2022-10-17T06:20:00;6.65;;;4.35;;
16770;SDS011;8503;52.472;13.344;2022-10-17T06:21:24;5.03;;;3.50;;
16770;SDS011;8503;52.472;13.344;2022-10-17T06:22:48;6.03;;;3.67;;
16770;SDS011;8503;52.472;13.344;2022-10-17T06:24:11;7.90;;;3.80;;
16770;SDS011;8503;52.472;13.344;2022-10-17T06:25:36;3.95;;;3.25;;
16770;SDS011;8503;52.472;13.344;2022-10-17T06:26:59;6.82;;;3.15;;
16770;SDS011;8503;52.472;13.344;2022-10-17T06:28:26;6.05;;;3.50;;
16770;SDS011;8503;52.472;13.344;2022-10-17T06:29:49;3.63;;;3.25;;
16770;SDS011;8503;52.472;13.344;2022-10-17T06:31:15;7.25;;;3.60;;
16770;SDS011;8503;52.472;13.344;2022-10-17T06:32:41;5.93;;;3.70;;
16770;SDS011;8503;52.472;13.344;2022-10-17T06:34:05;5.88;;;3.33;;
16770;SDS011;8503;52.472;13.344;2022-10-17T06:35:27;5.05;;;3.65;;
16770;SDS011;8503;52.472;13.344;2022-10-17T06:36:51;8.73;;;3.40;;
16770;SDS011;8503;52.472;13.344;2022-10-17T06:38:14;5.72;;;3.50;;
16770;SDS011;8503;52.472;13.344;2022-10-17T06:39:38;8.75;;;3.30;;
16770;SDS011;8503;52.472;13.344;2022-10-17T06:41:04;4.75;;;3.30;;
16770;SDS011;8503;52.472;13.344;2022-10-17T06:42:28;3.58;;;3.20;;
16770;SDS011;8503;52.472;13.344;2022-10-17T06:43:52;4.50;;;3.03;;
16770;SDS011;8503;52.472;13.344;2022-10-17T06:45:15;5.07;;;3.50;;
16770;SDS011;8503;52.472;13.344;2022-10-17T06:46:39;5.22;;;3.45;;
16770;SDS011;8503;52.472;13.344;2022-10-17T06:48:02;3.97;;;3.17;;
16770;SDS011;8503;52.472;13.344;2022-10-17T06:49:26;5.32;;;3.42;;
16770;SDS011;8503;52.472;13.344;2022-10-17T06:50:50;8.20;;;3.08;;
16770;SDS011;8503;52.472;13.344;2022-10-17T06:52:12;7.25;;;3.58;;
16770;SDS011;8503;52.472;13.344;2022-10-17T06:53:37;5.93;;;3.25;;
16770;SDS011;8503;52.472;13.344;2022-10-17T06:55:01;4.88;;;3.60;;
16770;SDS011;8503;52.472;13.344;2022-10-17T06:56:27;5.57;;;3.38;;
16770;SDS011;8503;52.472;13.344;2022-10-17T06:57:50;7.38;;;3.33;;
16770;SDS011;8503;52.472;13.344;2022-10-17T06:59:16;3.75;;;3.35;;
16770;SDS011;8503;52.472;13.344;2022-10-17T07:00:39;7.82;;;3.42;;
16770;SDS011;8503;52.472;13.344;2022-10-17T07:02:03;6.72;;;3.53;;
16770;SDS011;8503;52.472;13.344;2022-10-17T07:03:26;6.32;;;3.40;;
16770;SDS011;8503;52.472;13.344;2022-10-17T07:04:49;4.05;;;3.50;;
16770;SDS011;8503;52.472;13.344;2022-10-17T07:06:13;4.72;;;3.15;;
16770;SDS011;8503;52.472;13.344;2022-10-17T07:07:36;4.45;;;3.03;;
16770;SDS011;8503;52.472;13.344;2022-10-17T07:09:05;4.15;;;3.05;;
16770;SDS011;8503;52.472;13.344;2022-10-17T07:10:28;6.78;;;3.53;;
16770;SDS011;8503;52.472;13.344;2022-10-17T07:11:53;4.32;;;3.58;;
16770;SDS011;8503;52.472;13.344;2022-10-17T07:13:16;5.90;;;3.35;;
16770;SDS011;8503;52.472;13.344;2022-10-17T07:14:39;8.77;;;3.30;;
16770;SDS011;8503;52.472;13.344;2022-10-17T07:16:03;3.92;;;2.97;;
16770;SDS011;8503;52.472;13.344;2022-10-17T07:17:27;3.97;;;3.03;;
16770;SDS011;8503;52.472;13.344;2022-10-17T07:18:50;4.97;;;3.17;;
16770;SDS011;8503;52.472;13.344;2022-10-17T07:20:14;5.38;;;2.95;;
16770;SDS011;8503;52.472;13.344;2022-10-17T07:21:38;6.22;;;2.95;;
16770;SDS011;8503;52.472;13.344;2022-10-17T07:23:01;4.47;;;2.83;;
16770;SDS011;8503;52.472;13.344;2022-10-17T07:24:25;4.50;;;3.00;;
16770;SDS011;8503;52.472;13.344;2022-10-17T07:25:49;5.70;;;3.05;;
16770;SDS011;8503;52.472;13.344;2022-10-17T07:27:14;5.45;;;2.78;;
16770;SDS011;8503;52.472;13.344;2022-10-17T07:28:38;10.75;;;2.67;;
16770;SDS011;8503;52.472;13.344;2022-10-17T07:30:03;4.60;;;2.47;;
16770;SDS011;8503;52.472;13.344;2022-10-17T07:31:28;3.97;;;2.65;;
16770;SDS011;8503;52.472;13.344;2022-10-17T07:32:51;3.45;;;2.70;;
16770;SDS011;8503;52.472;13.344;2022-10-17T07:34:15;5.95;;;2.72;;
16770;SDS011;8503;52.472;13.344;2022-10-17T07:35:39;6.63;;;3.05;;
16770;SDS011;8503;52.472;13.344;2022-10-17T07:37:02;3.67;;;2.65;;
16770;SDS011;8503;52.472;13.344;2022-10-17T07:38:27;3.10;;;2.50;;
16770;SDS011;8503;52.472;13.344;2022-10-17T07:39:50;4.72;;;2.78;;
16770;SDS011;8503;52.472;13.344;2022-10-17T07:41:14;3.15;;;2.30;;
16770;SDS011;8503;52.472;13.344;2022-10-17T07:42:43;3.28;;;2.38;;
16770;SDS011;8503;52.472;13.344;2022-10-17T07:44:07;3.88;;;2.80;;
16770;SDS011;8503;52.472;13.344;2022-10-17T07:45:32;3.38;;;2.60;;
16770;SDS011;8503;52.472;13.344;2022-10-17T07:46:56;2.40;;;2.17;;
16770;SDS011;8503;52.472;13.344;2022-10-17T07:48:20;2.90;;;2.50;;
16770;SDS011;8503;52.472;13.344;2022-10-17T07:49:44;3.63;;;2.25;;
16770;SDS011;8503;52.472;13.344;2022-10-17T07:51:08;4.40;;;2.60;;
16770;SDS011;8503;52.472;13.344;2022-10-17T07:52:32;6.22;;;2.38;;
16770;SDS011;8503;52.472;13.344;2022-10-17T07:53:55;6.47;;;2.55;;
16770;SDS011;8503;52.472;13.344;2022-10-17T07:55:19;3.38;;;2.42;;
16770;SDS011;8503;52.472;13.344;2022-10-17T07:56:42;2.97;;;2.50;;
16770;SDS011;8503;52.472;13.344;2022-10-17T07:58:12;7.05;;;2.72;;
16770;SDS011;8503;52.472;13.344;2022-10-17T07:59:36;7.47;;;2.60;;
16770;SDS011;8503;52.472;13.344;2022-10-17T08:01:00;5.55;;;2.83;;
16770;SDS011;8503;52.472;13.344;2022-10-17T08:02:24;7.03;;;2.50;;
16770;SDS011;8503;52.472;13.344;2022-10-17T08:03:49;6.43;;;2.78;;
16770;SDS011;8503;52.472;13.344;2022-10-17T08:05:12;3.72;;;2.65;;
16770;SDS011;8503;52.472;13.344;2022-10-17T08:06:36;5.53;;;2.22;;
16770;SDS011;8503;52.472;13.344;2022-10-17T08:07:59;6.30;;;3.00;;
16770;SDS011;8503;52.472;13.344;2022-10-17T08:09:23;3.55;;;2.65;;
16770;SDS011;8503;52.472;13.344;2022-10-17T08:10:46;4.43;;;2.55;;
16770;SDS011;8503;52.472;13.344;2022-10-17T08:12:10;2.95;;;2.50;;
16770;SDS011;8503;52.472;13.344;2022-10-17T08:13:36;5.38;;;2.40;;
16770;SDS011;8503;52.472;13.344;2022-10-17T08:15:00;3.35;;;2.53;;
16770;SDS011;8503;52.472;13.344;2022-10-17T08:16:22;4.25;;;2.45;;
16770;SDS011;8503;52.472;13.344;2022-10-17T08:17:46;2.80;;;2.17;;
16770;SDS011;8503;52.472;13.344;2022-10-17T08:19:09;3.63;;;2.30;;
16770;SDS011;8503;52.472;13.344;2022-10-17T08:20:33;13.02;;;2.63;;
16770;SDS011;8503;52.472;13.344;2022-10-17T08:21:56;3.83;;;2.38;;
16770;SDS011;8503;52.472;13.344;2022-10-17T08:23:21;2.95;;;2.50;;
16770;SDS011;8503;52.472;13.344;2022-10-17T08:24:44;2.53;;;2.20;;
16770;SDS011;8503;52.472;13.344;2022-10-17T08:26:08;4.35;;;2.13;;
16770;SDS011;8503;52.472;13.344;2022-10-17T08:27:34;3.85;;;2.13;;
16770;SDS011;8503;52.472;13.344;2022-10-17T08:28:58;2.97;;;2.20;;
16770;SDS011;8503;52.472;13.344;2022-10-17T08:30:22;3.55;;;2.70;;
16770;SDS011;8503;52.472;13.344;2022-10-17T08:31:46;3.47;;;2.10;;
16770;SDS011;8503;52.472;13.344;2022-10-17T08:33:16;2.65;;;2.03;;